sensor_id;sensor_type;location;lat;lon;timestamp;pressure;altitude;pressure_sealevel;temperature;humidity
76551;BME280;68768;53.156;18.164;2023-10-31T00:01:41;99776.31;;;11.35;82.79
76551;BME280;68768;53.156;18.164;2023-10-31T00:04:08;99773.05;;;11.37;82.94
76551;BME280;68768;53.156;18.164;2023-10-31T00:06:35;99769.83;;;11.37;82.88
76551;BME280;68768;53.156;18.164;2023-10-31T00:09:02;99769.36;;;11.39;82.71
76551;BME280;68768;53.156;18.164;2023-10-31T00:11:29;99780.63;;;11.41;82.74
76551;BME280;68768;53.156;18.164;2023-10-31T00:13:56;99772.55;;;11.42;82.86
76551;BME280;68768;53.156;18.164;2023-10-31T00:16:23;99760.55;;;11.44;83.07
76551;BME280;68768;53.156;18.164;2023-10-31T00:18:50;99755.48;;;11.46;83.27
76551;BME280;68768;53.156;18.164;2023-10-31T00:21:18;99749.42;;;11.46;83.24
76551;BME280;68768;53.156;18.164;2023-10-31T00:23:46;99738.16;;;11.47;83.32
76551;BME280;68768;53.156;18.164;2023-10-31T00:26:14;99732.94;;;11.48;83.75
76551;BME280;68768;53.156;18.164;2023-10-31T00:28:42;99732.20;;;11.49;83.35
76551;BME280;68768;53.156;18.164;2023-10-31T00:31:09;99725.85;;;11.51;83.28
76551;BME280;68768;53.156;18.164;2023-10-31T00:33:38;99718.84;;;11.52;83.02
76551;BME280;68768;53.156;18.164;2023-10-31T00:36:06;99713.80;;;11.54;83.26
76551;BME280;68768;53.156;18.164;2023-10-31T00:38:33;99713.39;;;11.54;83.23
76551;BME280;68768;53.156;18.164;2023-10-31T00:41:00;99711.02;;;11.56;83.11
76551;BME280;68768;53.156;18.164;2023-10-31T00:43:27;99706.88;;;11.57;83.08
76551;BME280;68768;53.156;18.164;2023-10-31T00:45:54;99699.49;;;11.58;82.96
76551;BME280;68768;53.156;18.164;2023-10-31T00:48:21;99694.93;;;11.60;83.14
76551;BME280;68768;53.156;18.164;2023-10-31T00:50:48;99690.77;;;11.61;82.98
76551;BME280;68768;53.156;18.164;2023-10-31T00:53:15;99679.86;;;11.62;82.90
76551;BME280;68768;53.156;18.164;2023-10-31T00:55:43;99669.98;;;11.64;82.91
76551;BME280;68768;53.156;18.164;2023-10-31T00:58:11;99666.86;;;11.66;82.92
76551;BME280;68768;53.156;18.164;2023-10-31T01:00:38;99666.27;;;11.67;82.98
76551;BME280;68768;53.156;18.164;2023-10-31T01:03:05;99654.83;;;11.68;82.86
76551;BME280;68768;53.156;18.164;2023-10-31T01:05:32;99654.38;;;11.70;82.89
76551;BME280;68768;53.156;18.164;2023-10-31T01:07:59;99650.03;;;11.71;82.85
76551;BME280;68768;53.156;18.164;2023-10-31T01:10:26;99643.41;;;11.71;82.86
76551;BME280;68768;53.156;18.164;2023-10-31T01:12:53;99641.23;;;11.72;82.91
76551;BME280;68768;53.156;18.164;2023-10-31T01:15:20;99642.27;;;11.72;83.13
76551;BME280;68768;53.156;18.164;2023-10-31T01:17:47;99639.75;;;11.73;82.99
76551;BME280;68768;53.156;18.164;2023-10-31T01:20:14;99633.15;;;11.74;83.34
76551;BME280;68768;53.156;18.164;2023-10-31T01:22:41;99623.57;;;11.73;83.07
76551;BME280;68768;53.156;18.164;2023-10-31T01:25:09;99618.94;;;11.74;83.09
76551;BME280;68768;53.156;18.164;2023-10-31T01:27:36;99608.48;;;11.73;83.00
76551;BME280;68768;53.156;18.164;2023-10-31T01:30:05;99602.02;;;11.74;83.12
76551;BME280;68768;53.156;18.164;2023-10-31T01:32:32;99591.73;;;11.74;83.20
76551;BME280;68768;53.156;18.164;2023-10-31T01:35:00;99581.21;;;11.74;83.10
76551;BME280;68768;53.156;18.164;2023-10-31T01:37:27;99570.16;;;11.75;83.17
76551;BME280;68768;53.156;18.164;2023-10-31T01:39:54;99564.27;;;11.76;83.27
76551;BME280;68768;53.156;18.164;2023-10-31T01:42:21;99550.89;;;11.77;83.26
76551;BME280;68768;53.156;18.164;2023-10-31T01:44:48;99543.50;;;11.78;83.18
76551;BME280;68768;53.156;18.164;2023-10-31T01:47:15;99529.87;;;11.80;83.24
76551;BME280;68768;53.156;18.164;2023-10-31T01:49:42;99524.42;;;11.83;83.24
76551;BME280;68768;53.156;18.164;2023-10-31T01:52:11;99516.36;;;11.83;83.23
76551;BME280;68768;53.156;18.164;2023-10-31T01:54:38;99509.14;;;11.85;83.14
76551;BME280;68768;53.156;18.164;2023-10-31T01:57:05;99502.48;;;11.87;83.25
76551;BME280;68768;53.156;18.164;2023-10-31T01:59:32;99495.43;;;11.89;83.18
76551;BME280;68768;53.156;18.164;2023-10-31T02:02:00;99490.13;;;11.91;83.24
76551;BME280;68768;53.156;18.164;2023-10-31T02:04:27;99482.89;;;11.92;83.39
76551;BME280;68768;53.156;18.164;2023-10-31T02:06:54;99473.09;;;11.93;83.27
76551;BME280;68768;53.156;18.164;2023-10-31T02:09:21;99469.81;;;11.97;83.34
76551;BME280;68768;53.156;18.164;2023-10-31T02:11:51;99463.48;;;11.99;83.36
76551;BME280;68768;53.156;18.164;2023-10-31T02:14:18;99461.92;;;12.01;83.46
76551;BME280;68768;53.156;18.164;2023-10-31T02:16:45;99453.77;;;12.03;83.47
76551;BME280;68768;53.156;18.164;2023-10-31T02:19:14;99448.48;;;12.05;83.19
76551;BME280;68768;53.156;18.164;2023-10-31T02:21:42;99443.86;;;12.08;83.24
76551;BME280;68768;53.156;18.164;2023-10-31T02:24:10;99443.55;;;12.10;83.33
76551;BME280;68768;53.156;18.164;2023-10-31T02:26:38;99441.61;;;12.12;83.43
76551;BME280;68768;53.156;18.164;2023-10-31T02:29:05;99435.05;;;12.14;83.48
76551;BME280;68768;53.156;18.164;2023-10-31T02:31:33;99428.66;;;12.17;83.29
76551;BME280;68768;53.156;18.164;2023-10-31T02:34:00;99425.16;;;12.19;83.31
76551;BME280;68768;53.156;18.164;2023-10-31T02:36:27;99421.60;;;12.22;83.29
76551;BME280;68768;53.156;18.164;2023-10-31T02:38:54;99417.61;;;12.25;83.31
76551;BME280;68768;53.156;18.164;2023-10-31T02:41:21;99417.63;;;12.28;83.25
76551;BME280;68768;53.156;18.164;2023-10-31T02:43:48;99410.96;;;12.29;83.11
76551;BME280;68768;53.156;18.164;2023-10-31T02:46:15;99407.65;;;12.33;83.06
76551;BME280;68768;53.156;18.164;2023-10-31T02:48:42;99403.98;;;12.35;83.01
76551;BME280;68768;53.156;18.164;2023-10-31T02:51:09;99401.34;;;12.37;82.93
76551;BME280;68768;53.156;18.164;2023-10-31T02:53:36;99396.60;;;12.39;82.96
76551;BME280;68768;53.156;18.164;2023-10-31T02:56:04;99388.63;;;12.41;82.91
76551;BME280;68768;53.156;18.164;2023-10-31T02:58:31;99375.32;;;12.43;82.88
76551;BME280;68768;53.156;18.164;2023-10-31T03:00:58;99370.61;;;12.44;82.89
76551;BME280;68768;53.156;18.164;2023-10-31T03:03:25;99362.31;;;12.46;82.85
76551;BME280;68768;53.156;18.164;2023-10-31T03:05:52;99354.44;;;12.47;82.82
76551;BME280;68768;53.156;18.164;2023-10-31T03:08:19;99353.36;;;12.50;82.73
76551;BME280;68768;53.156;18.164;2023-10-31T03:10:48;99350.08;;;12.51;82.81
76551;BME280;68768;53.156;18.164;2023-10-31T03:13:17;99352.12;;;12.52;82.71
76551;BME280;68768;53.156;18.164;2023-10-31T03:15:48;99355.73;;;12.53;82.73
76551;BME280;68768;53.156;18.164;2023-10-31T03:18:15;99351.72;;;12.56;82.59
76551;BME280;68768;53.156;18.164;2023-10-31T03:20:43;99348.82;;;12.57;82.58
76551;BME280;68768;53.156;18.164;2023-10-31T03:23:12;99341.67;;;12.57;82.64
76551;BME280;68768;53.156;18.164;2023-10-31T03:25:39;99332.55;;;12.58;82.57
76551;BME280;68768;53.156;18.164;2023-10-31T03:28:17;99328.39;;;12.59;82.60
76551;BME280;68768;53.156;18.164;2023-10-31T03:30:47;99311.61;;;12.60;82.58
76551;BME280;68768;53.156;18.164;2023-10-31T03:33:14;99304.92;;;12.61;82.53
76551;BME280;68768;53.156;18.164;2023-10-31T03:35:42;99297.96;;;12.61;82.60
76551;BME280;68768;53.156;18.164;2023-10-31T03:38:09;99292.95;;;12.62;82.65
76551;BME280;68768;53.156;18.164;2023-10-31T03:40:36;99290.89;;;12.63;82.60
76551;BME280;68768;53.156;18.164;2023-10-31T03:43:04;99286.33;;;12.64;82.54
76551;BME280;68768;53.156;18.164;2023-10-31T03:45:31;99285.65;;;12.67;82.66
76551;BME280;68768;53.156;18.164;2023-10-31T03:47:59;99287.45;;;12.69;82.54
76551;BME280;68768;53.156;18.164;2023-10-31T03:50:28;99276.98;;;12.71;82.52
76551;BME280;68768;53.156;18.164;2023-10-31T03:52:55;99269.86;;;12.73;82.49
76551;BME280;68768;53.156;18.164;2023-10-31T03:55:22;99274.14;;;12.76;82.51
76551;BME280;68768;53.156;18.164;2023-10-31T03:57:50;99265.30;;;12.78;82.54
76551;BME280;68768;53.156;18.164;2023-10-31T04:00:17;99260.33;;;12.80;82.53
76551;BME280;68768;53.156;18.164;2023-10-31T04:02:45;99249.95;;;12.83;82.50
76551;BME280;68768;53.156;18.164;2023-10-31T04:05:13;99247.26;;;12.86;82.51
76551;BME280;68768;53.156;18.164;2023-10-31T04:07:39;99235.44;;;12.89;82.48
76551;BME280;68768;53.156;18.164;2023-10-31T04:10:07;99229.45;;;12.91;82.40
76551;BME280;68768;53.156;18.164;2023-10-31T04:12:34;99218.77;;;12.93;82.54
76551;BME280;68768;53.156;18.164;2023-10-31T04:15:02;99217.64;;;12.96;82.39
76551;BME280;68768;53.156;18.164;2023-10-31T04:17:29;99209.00;;;12.98;82.41
76551;BME280;68768;53.156;18.164;2023-10-31T04:19:55;99203.57;;;12.99;82.32
76551;BME280;68768;53.156;18.164;2023-10-31T04:22:22;99197.25;;;13.00;82.41
76551;BME280;68768;53.156;18.164;2023-10-31T04:24:49;99190.52;;;13.00;82.32
76551;BME280;68768;53.156;18.164;2023-10-31T04:27:17;99196.94;;;13.02;82.27
76551;BME280;68768;53.156;18.164;2023-10-31T04:29:44;99189.55;;;13.03;82.39
76551;BME280;68768;53.156;18.164;2023-10-31T04:32:11;99184.70;;;13.04;82.40
76551;BME280;68768;53.156;18.164;2023-10-31T04:34:38;99185.34;;;13.05;82.34
76551;BME280;68768;53.156;18.164;2023-10-31T04:37:05;99186.61;;;13.04;82.35
76551;BME280;68768;53.156;18.164;2023-10-31T04:39:32;99184.60;;;13.05;82.36
76551;BME280;68768;53.156;18.164;2023-10-31T04:41:59;99187.56;;;13.06;82.37
76551;BME280;68768;53.156;18.164;2023-10-31T04:44:26;99184.80;;;13.07;82.47
76551;BME280;68768;53.156;18.164;2023-10-31T04:46:53;99179.79;;;13.07;82.34
76551;BME280;68768;53.156;18.164;2023-10-31T04:49:20;99176.39;;;13.08;82.42
76551;BME280;68768;53.156;18.164;2023-10-31T04:51:48;99177.06;;;13.08;82.36
76551;BME280;68768;53.156;18.164;2023-10-31T04:54:15;99175.48;;;13.08;82.33
76551;BME280;68768;53.156;18.164;2023-10-31T04:56:42;99174.77;;;13.08;82.34
76551;BME280;68768;53.156;18.164;2023-10-31T04:59:09;99167.48;;;13.08;82.33
76551;BME280;68768;53.156;18.164;2023-10-31T05:01:36;99160.16;;;13.08;82.26
76551;BME280;68768;53.156;18.164;2023-10-31T05:04:03;99158.73;;;13.08;82.43
76551;BME280;68768;53.156;18.164;2023-10-31T05:06:30;99153.57;;;13.08;82.36
76551;BME280;68768;53.156;18.164;2023-10-31T05:08:57;99150.60;;;13.07;82.29
76551;BME280;68768;53.156;18.164;2023-10-31T05:11:24;99148.46;;;13.07;82.40
76551;BME280;68768;53.156;18.164;2023-10-31T05:13:51;99146.20;;;13.06;82.24
76551;BME280;68768;53.156;18.164;2023-10-31T05:16:18;99141.58;;;13.06;82.37
76551;BME280;68768;53.156;18.164;2023-10-31T05:18:45;99136.05;;;13.07;82.28
76551;BME280;68768;53.156;18.164;2023-10-31T05:21:12;99137.35;;;13.06;82.29
76551;BME280;68768;53.156;18.164;2023-10-31T05:23:39;99139.52;;;13.06;82.36
76551;BME280;68768;53.156;18.164;2023-10-31T05:26:07;99131.50;;;13.06;82.27
76551;BME280;68768;53.156;18.164;2023-10-31T05:28:34;99123.88;;;13.05;82.23
76551;BME280;68768;53.156;18.164;2023-10-31T05:31:02;99125.33;;;13.05;82.22
76551;BME280;68768;53.156;18.164;2023-10-31T05:33:30;99118.94;;;13.04;82.26
76551;BME280;68768;53.156;18.164;2023-10-31T05:35:57;99113.95;;;13.04;82.13
76551;BME280;68768;53.156;18.164;2023-10-31T05:38:23;99106.49;;;13.04;82.17
76551;BME280;68768;53.156;18.164;2023-10-31T05:40:50;99098.50;;;13.04;82.19
76551;BME280;68768;53.156;18.164;2023-10-31T05:43:17;99091.52;;;13.04;82.14
76551;BME280;68768;53.156;18.164;2023-10-31T05:45:44;99093.31;;;13.04;82.11
76551;BME280;68768;53.156;18.164;2023-10-31T05:48:11;99098.65;;;13.04;82.08
76551;BME280;68768;53.156;18.164;2023-10-31T05:50:42;99101.29;;;13.04;82.18
76551;BME280;68768;53.156;18.164;2023-10-31T05:53:09;99091.66;;;13.05;82.11
76551;BME280;68768;53.156;18.164;2023-10-31T05:55:39;99093.95;;;13.05;82.09
76551;BME280;68768;53.156;18.164;2023-10-31T05:58:06;99093.34;;;13.06;82.13
76551;BME280;68768;53.156;18.164;2023-10-31T06:00:33;99093.11;;;13.07;82.10
76551;BME280;68768;53.156;18.164;2023-10-31T06:03:01;99093.77;;;13.08;82.03
76551;BME280;68768;53.156;18.164;2023-10-31T06:05:29;99087.48;;;13.08;81.99
76551;BME280;68768;53.156;18.164;2023-10-31T06:07:56;99084.73;;;13.09;81.96
76551;BME280;68768;53.156;18.164;2023-10-31T06:10:23;99087.66;;;13.11;81.92
76551;BME280;68768;53.156;18.164;2023-10-31T06:12:50;99088.46;;;13.12;81.97
76551;BME280;68768;53.156;18.164;2023-10-31T06:15:17;99089.74;;;13.14;82.16
76551;BME280;68768;53.156;18.164;2023-10-31T06:17:44;99089.27;;;13.16;81.91
76551;BME280;68768;53.156;18.164;2023-10-31T06:20:11;99088.81;;;13.17;81.90
76551;BME280;68768;53.156;18.164;2023-10-31T06:22:38;99087.27;;;13.19;81.83
76551;BME280;68768;53.156;18.164;2023-10-31T06:25:05;99086.45;;;13.20;81.83
76551;BME280;68768;53.156;18.164;2023-10-31T06:27:33;99090.59;;;13.22;81.83
76551;BME280;68768;53.156;18.164;2023-10-31T06:30:00;99083.84;;;13.24;81.81
76551;BME280;68768;53.156;18.164;2023-10-31T06:32:27;99085.14;;;13.25;81.67
76551;BME280;68768;53.156;18.164;2023-10-31T06:34:54;99086.08;;;13.28;81.80
76551;BME280;68768;53.156;18.164;2023-10-31T06:37:21;99084.13;;;13.30;81.62
76551;BME280;68768;53.156;18.164;2023-10-31T06:39:48;99087.79;;;13.31;81.58
76551;BME280;68768;53.156;18.164;2023-10-31T06:42:14;99085.33;;;13.33;81.37
76551;BME280;68768;53.156;18.164;2023-10-31T06:44:41;99084.33;;;13.34;81.45
76551;BME280;68768;53.156;18.164;2023-10-31T06:47:08;99078.31;;;13.36;81.42
76551;BME280;68768;53.156;18.164;2023-10-31T06:49:35;99076.42;;;13.37;81.38
76551;BME280;68768;53.156;18.164;2023-10-31T06:52:04;99076.48;;;13.39;81.40
76551;BME280;68768;53.156;18.164;2023-10-31T06:54:31;99071.54;;;13.41;81.35
76551;BME280;68768;53.156;18.164;2023-10-31T06:56:58;99070.84;;;13.43;81.22
76551;BME280;68768;53.156;18.164;2023-10-31T06:59:25;99064.85;;;13.44;81.20
76551;BME280;68768;53.156;18.164;2023-10-31T07:01:52;99063.83;;;13.46;81.14
76551;BME280;68768;53.156;18.164;2023-10-31T07:04:19;99056.39;;;13.48;81.11
76551;BME280;68768;53.156;18.164;2023-10-31T07:06:46;99051.79;;;13.50;81.12
76551;BME280;68768;53.156;18.164;2023-10-31T07:09:14;99050.23;;;13.51;80.91
76551;BME280;68768;53.156;18.164;2023-10-31T07:11:41;99052.51;;;13.54;80.82
76551;BME280;68768;53.156;18.164;2023-10-31T07:14:08;99051.27;;;13.56;80.85
76551;BME280;68768;53.156;18.164;2023-10-31T07:16:35;99047.58;;;13.58;80.78
76551;BME280;68768;53.156;18.164;2023-10-31T07:19:02;99043.65;;;13.60;80.70
76551;BME280;68768;53.156;18.164;2023-10-31T07:21:29;99045.23;;;13.63;80.56
76551;BME280;68768;53.156;18.164;2023-10-31T07:23:56;99044.67;;;13.66;80.58
76551;BME280;68768;53.156;18.164;2023-10-31T07:26:23;99045.91;;;13.68;80.58
76551;BME280;68768;53.156;18.164;2023-10-31T07:28:51;99039.80;;;13.71;80.68
76551;BME280;68768;53.156;18.164;2023-10-31T07:31:18;99037.36;;;13.74;80.53
76551;BME280;68768;53.156;18.164;2023-10-31T07:33:45;99036.11;;;13.77;80.57
76551;BME280;68768;53.156;18.164;2023-10-31T07:36:12;99029.85;;;13.80;80.49
76551;BME280;68768;53.156;18.164;2023-10-31T07:38:39;99020.94;;;13.82;80.49
76551;BME280;68768;53.156;18.164;2023-10-31T07:41:06;99013.62;;;13.84;80.52
76551;BME280;68768;53.156;18.164;2023-10-31T07:43:33;99009.17;;;13.86;80.43
76551;BME280;68768;53.156;18.164;2023-10-31T07:46:00;99016.31;;;13.88;80.29
76551;BME280;68768;53.156;18.164;2023-10-31T07:48:27;99015.83;;;13.90;80.31
76551;BME280;68768;53.156;18.164;2023-10-31T07:50:54;99008.18;;;13.92;80.32
76551;BME280;68768;53.156;18.164;2023-10-31T07:53:21;99008.93;;;13.94;80.36
76551;BME280;68768;53.156;18.164;2023-10-31T07:55:48;99009.91;;;13.94;80.28
76551;BME280;68768;53.156;18.164;2023-10-31T07:58:15;99009.69;;;13.95;80.20
76551;BME280;68768;53.156;18.164;2023-10-31T08:00:43;99010.27;;;13.95;80.24
76551;BME280;68768;53.156;18.164;2023-10-31T08:03:10;99006.73;;;13.94;80.28
76551;BME280;68768;53.156;18.164;2023-10-31T08:05:37;99011.80;;;13.93;80.36
76551;BME280;68768;53.156;18.164;2023-10-31T08:08:04;99010.31;;;13.92;80.43
76551;BME280;68768;53.156;18.164;2023-10-31T08:10:31;99011.19;;;13.90;80.39
76551;BME280;68768;53.156;18.164;2023-10-31T08:13:00;99008.87;;;13.87;80.48
76551;BME280;68768;53.156;18.164;2023-10-31T08:15:27;99015.59;;;13.86;80.55
76551;BME280;68768;53.156;18.164;2023-10-31T08:17:54;99016.80;;;13.84;80.58
76551;BME280;68768;53.156;18.164;2023-10-31T08:20:22;99023.05;;;13.82;80.74
76551;BME280;68768;53.156;18.164;2023-10-31T08:22:49;99021.14;;;13.79;80.95
76551;BME280;68768;53.156;18.164;2023-10-31T08:25:16;99018.11;;;13.77;81.20
76551;BME280;68768;53.156;18.164;2023-10-31T08:27:43;99019.77;;;13.74;81.28
76551;BME280;68768;53.156;18.164;2023-10-31T08:30:10;99022.71;;;13.70;81.38
76551;BME280;68768;53.156;18.164;2023-10-31T08:32:37;99028.08;;;13.68;81.65
76551;BME280;68768;53.156;18.164;2023-10-31T08:35:04;99025.42;;;13.65;81.69
76551;BME280;68768;53.156;18.164;2023-10-31T08:37:31;99024.58;;;13.62;81.89
76551;BME280;68768;53.156;18.164;2023-10-31T08:39:58;99030.17;;;13.59;81.96
76551;BME280;68768;53.156;18.164;2023-10-31T08:42:25;99030.88;;;13.57;82.09
76551;BME280;68768;53.156;18.164;2023-10-31T08:44:52;99032.71;;;13.54;82.08
76551;BME280;68768;53.156;18.164;2023-10-31T08:47:19;99032.27;;;13.51;82.43
76551;BME280;68768;53.156;18.164;2023-10-31T08:49:46;99038.08;;;13.47;82.38
76551;BME280;68768;53.156;18.164;2023-10-31T08:52:13;99034.14;;;13.45;82.47
76551;BME280;68768;53.156;18.164;2023-10-31T08:54:40;99037.96;;;13.42;82.78
76551;BME280;68768;53.156;18.164;2023-10-31T08:57:07;99040.64;;;13.39;83.05
76551;BME280;68768;53.156;18.164;2023-10-31T08:59:34;99046.66;;;13.37;82.98
76551;BME280;68768;53.156;18.164;2023-10-31T09:02:02;99047.18;;;13.35;83.20
76551;BME280;68768;53.156;18.164;2023-10-31T09:04:28;99050.70;;;13.34;83.43
76551;BME280;68768;53.156;18.164;2023-10-31T09:06:55;99054.77;;;13.32;83.83
76551;BME280;68768;53.156;18.164;2023-10-31T09:09:22;99057.73;;;13.30;83.59
76551;BME280;68768;53.156;18.164;2023-10-31T09:11:49;99059.71;;;13.30;83.98
76551;BME280;68768;53.156;18.164;2023-10-31T09:14:16;99059.40;;;13.30;84.01
76551;BME280;68768;53.156;18.164;2023-10-31T09:16:43;99058.84;;;13.30;84.68
76551;BME280;68768;53.156;18.164;2023-10-31T09:19:10;99056.02;;;13.32;84.71
76551;BME280;68768;53.156;18.164;2023-10-31T09:21:37;99050.80;;;13.35;84.90
76551;BME280;68768;53.156;18.164;2023-10-31T09:24:05;99049.19;;;13.37;84.94
76551;BME280;68768;53.156;18.164;2023-10-31T09:26:32;99048.02;;;13.41;85.00
76551;BME280;68768;53.156;18.164;2023-10-31T09:29:00;99046.95;;;13.43;85.11
76551;BME280;68768;53.156;18.164;2023-10-31T09:31:27;99048.29;;;13.46;85.19
76551;BME280;68768;53.156;18.164;2023-10-31T09:33:54;99046.34;;;13.49;85.43
76551;BME280;68768;53.156;18.164;2023-10-31T09:36:21;99047.13;;;13.50;85.65
76551;BME280;68768;53.156;18.164;2023-10-31T09:38:48;99055.05;;;13.54;85.91
76551;BME280;68768;53.156;18.164;2023-10-31T09:41:15;99051.80;;;13.56;85.80
76551;BME280;68768;53.156;18.164;2023-10-31T09:43:42;99049.30;;;13.59;85.85
76551;BME280;68768;53.156;18.164;2023-10-31T09:46:09;99048.95;;;13.61;85.88
76551;BME280;68768;53.156;18.164;2023-10-31T09:48:37;99055.84;;;13.64;85.74
76551;BME280;68768;53.156;18.164;2023-10-31T09:51:05;99068.84;;;13.66;85.89
76551;BME280;68768;53.156;18.164;2023-10-31T09:53:33;99070.33;;;13.68;86.45
76551;BME280;68768;53.156;18.164;2023-10-31T09:56:04;99077.77;;;13.69;86.23
76551;BME280;68768;53.156;18.164;2023-10-31T09:58:33;99083.56;;;13.70;85.95
76551;BME280;68768;53.156;18.164;2023-10-31T10:01:00;99087.00;;;13.72;85.89
76551;BME280;68768;53.156;18.164;2023-10-31T10:03:28;99087.59;;;13.73;85.92
76551;BME280;68768;53.156;18.164;2023-10-31T10:05:55;99093.55;;;13.74;85.96
76551;BME280;68768;53.156;18.164;2023-10-31T10:08:22;99098.95;;;13.76;86.25
76551;BME280;68768;53.156;18.164;2023-10-31T10:10:50;99092.88;;;13.76;86.04
76551;BME280;68768;53.156;18.164;2023-10-31T10:13:19;99090.45;;;13.77;86.03
76551;BME280;68768;53.156;18.164;2023-10-31T10:15:48;99094.04;;;13.79;85.96
76551;BME280;68768;53.156;18.164;2023-10-31T10:18:29;99103.70;;;13.81;85.96
76551;BME280;68768;53.156;18.164;2023-10-31T10:21:01;99103.68;;;13.84;86.14
76551;BME280;68768;53.156;18.164;2023-10-31T10:23:29;99100.11;;;13.84;86.43
76551;BME280;68768;53.156;18.164;2023-10-31T10:25:57;99101.64;;;13.87;86.10
76551;BME280;68768;53.156;18.164;2023-10-31T10:28:25;99095.66;;;13.88;85.89
76551;BME280;68768;53.156;18.164;2023-10-31T10:30:53;99102.14;;;13.90;85.81
76551;BME280;68768;53.156;18.164;2023-10-31T10:33:21;99107.23;;;13.91;85.78
76551;BME280;68768;53.156;18.164;2023-10-31T10:35:48;99112.98;;;13.90;85.81
76551;BME280;68768;53.156;18.164;2023-10-31T10:38:16;99118.58;;;13.90;85.48
76551;BME280;68768;53.156;18.164;2023-10-31T10:40:45;99115.42;;;13.89;85.73
76551;BME280;68768;53.156;18.164;2023-10-31T10:43:21;99122.90;;;13.86;85.58
76551;BME280;68768;53.156;18.164;2023-10-31T10:45:58;99132.44;;;13.85;85.44
76551;BME280;68768;53.156;18.164;2023-10-31T10:48:26;99142.88;;;13.86;85.50
76551;BME280;68768;53.156;18.164;2023-10-31T10:51:01;99147.45;;;13.85;85.42
76551;BME280;68768;53.156;18.164;2023-10-31T10:53:42;99154.21;;;13.83;85.54
76551;BME280;68768;53.156;18.164;2023-10-31T10:56:21;99156.90;;;13.80;85.47
76551;BME280;68768;53.156;18.164;2023-10-31T10:59:02;99148.64;;;13.79;85.47
76551;BME280;68768;53.156;18.164;2023-10-31T11:01:34;99152.38;;;13.77;85.39
76551;BME280;68768;53.156;18.164;2023-10-31T11:04:05;99158.50;;;13.76;85.23
76551;BME280;68768;53.156;18.164;2023-10-31T11:06:33;99149.83;;;13.75;85.27
76551;BME280;68768;53.156;18.164;2023-10-31T11:09:02;99146.96;;;13.73;85.35
76551;BME280;68768;53.156;18.164;2023-10-31T11:11:29;99146.20;;;13.74;85.14
76551;BME280;68768;53.156;18.164;2023-10-31T11:13:56;99148.84;;;13.74;85.09
76551;BME280;68768;53.156;18.164;2023-10-31T11:16:30;99152.09;;;13.74;85.18
76551;BME280;68768;53.156;18.164;2023-10-31T11:19:02;99157.02;;;13.74;85.17
76551;BME280;68768;53.156;18.164;2023-10-31T11:21:29;99157.66;;;13.75;85.02
76551;BME280;68768;53.156;18.164;2023-10-31T11:24:00;99162.60;;;13.76;85.05
76551;BME280;68768;53.156;18.164;2023-10-31T11:26:29;99163.27;;;13.76;84.98
76551;BME280;68768;53.156;18.164;2023-10-31T11:29:06;99178.02;;;13.77;84.97
76551;BME280;68768;53.156;18.164;2023-10-31T11:31:33;99187.31;;;13.77;85.06
76551;BME280;68768;53.156;18.164;2023-10-31T11:34:01;99202.94;;;13.75;85.02
76551;BME280;68768;53.156;18.164;2023-10-31T11:36:32;99212.23;;;13.75;84.99
76551;BME280;68768;53.156;18.164;2023-10-31T11:39:14;99210.80;;;13.75;84.94
76551;BME280;68768;53.156;18.164;2023-10-31T11:41:48;99216.90;;;13.75;84.89
76551;BME280;68768;53.156;18.164;2023-10-31T11:44:17;99234.64;;;13.74;84.82
76551;BME280;68768;53.156;18.164;2023-10-31T11:46:44;99241.96;;;13.71;84.69
76551;BME280;68768;53.156;18.164;2023-10-31T11:49:17;99255.12;;;13.69;84.72
76551;BME280;68768;53.156;18.164;2023-10-31T11:51:45;99252.48;;;13.69;84.79
76551;BME280;68768;53.156;18.164;2023-10-31T11:54:13;99252.70;;;13.68;84.76
76551;BME280;68768;53.156;18.164;2023-10-31T11:56:40;99262.08;;;13.67;84.58
76551;BME280;68768;53.156;18.164;2023-10-31T11:59:07;99269.50;;;13.65;84.66
76551;BME280;68768;53.156;18.164;2023-10-31T12:01:44;99274.89;;;13.64;84.79
76551;BME280;68768;53.156;18.164;2023-10-31T12:04:21;99275.11;;;13.64;84.71
76551;BME280;68768;53.156;18.164;2023-10-31T12:06:59;99283.05;;;13.62;84.80
76551;BME280;68768;53.156;18.164;2023-10-31T12:09:27;99285.97;;;13.62;84.92
76551;BME280;68768;53.156;18.164;2023-10-31T12:11:54;99288.52;;;13.61;84.86
76551;BME280;68768;53.156;18.164;2023-10-31T12:14:21;99292.51;;;13.57;84.85
76551;BME280;68768;53.156;18.164;2023-10-31T12:16:48;99293.41;;;13.57;85.04
76551;BME280;68768;53.156;18.164;2023-10-31T12:19:15;99289.58;;;13.56;85.28
76551;BME280;68768;53.156;18.164;2023-10-31T12:21:44;99291.22;;;13.56;85.13
76551;BME280;68768;53.156;18.164;2023-10-31T12:24:15;99284.92;;;13.54;85.54
76551;BME280;68768;53.156;18.164;2023-10-31T12:26:44;99276.18;;;13.52;85.57
76551;BME280;68768;53.156;18.164;2023-10-31T12:29:13;99274.42;;;13.52;85.52
76551;BME280;68768;53.156;18.164;2023-10-31T12:31:48;99268.33;;;13.52;85.67
76551;BME280;68768;53.156;18.164;2023-10-31T12:34:17;99270.75;;;13.51;85.81
76551;BME280;68768;53.156;18.164;2023-10-31T12:36:46;99268.89;;;13.49;85.75
76551;BME280;68768;53.156;18.164;2023-10-31T12:39:14;99267.97;;;13.52;85.62
76551;BME280;68768;53.156;18.164;2023-10-31T12:41:43;99272.66;;;13.56;85.81
76551;BME280;68768;53.156;18.164;2023-10-31T12:44:11;99270.63;;;13.57;85.89
76551;BME280;68768;53.156;18.164;2023-10-31T12:46:41;99267.91;;;13.57;86.01
76551;BME280;68768;53.156;18.164;2023-10-31T12:49:11;99274.52;;;13.57;85.93
76551;BME280;68768;53.156;18.164;2023-10-31T12:52:01;99277.20;;;13.57;86.04
76551;BME280;68768;53.156;18.164;2023-10-31T12:54:35;99279.56;;;13.56;86.06